sensor_id;sensor_type;location;lat;lon;timestamp;temperature;humidity
7317;DHT22;3699;51.462;6.696;2022-11-11T00:02:08;10.10;99.90
7317;DHT22;3699;51.462;6.696;2022-11-11T00:04:34;10.30;99.90
7317;DHT22;3699;51.462;6.696;2022-11-11T00:07:01;9.60;99.90
7317;DHT22;3699;51.462;6.696;2022-11-11T00:09:28;10.30;99.90
7317;DHT22;3699;51.462;6.696;2022-11-11T00:11:54;10.20;99.90
7317;DHT22;3699;51.462;6.696;2022-11-11T00:14:22;10.30;99.90
7317;DHT22;3699;51.462;6.696;2022-11-11T00:16:48;10.10;99.90
7317;DHT22;3699;51.462;6.696;2022-11-11T00:19:34;10.50;99.90
7317;DHT22;3699;51.462;6.696;2022-11-11T00:22:24;10.00;99.90
7317;DHT22;3699;51.462;6.696;2022-11-11T00:25:08;10.10;99.90
7317;DHT22;3699;51.462;6.696;2022-11-11T00:30:02;10.30;99.90
7317;DHT22;3699;51.462;6.696;2022-11-11T00:32:31;10.10;99.90
7317;DHT22;3699;51.462;6.696;2022-11-11T00:34:59;9.40;99.90
7317;DHT22;3699;51.462;6.696;2022-11-11T00:37:45;10.10;99.90
7317;DHT22;3699;51.462;6.696;2022-11-11T00:40:14;9.90;99.90
7317;DHT22;3699;51.462;6.696;2022-11-11T00:42:41;9.90;99.90
7317;DHT22;3699;51.462;6.696;2022-11-11T00:45:09;10.00;99.90
7317;DHT22;3699;51.462;6.696;2022-11-11T00:47:36;10.10;99.90
7317;DHT22;3699;51.462;6.696;2022-11-11T00:50:23;10.00;99.90
7317;DHT22;3699;51.462;6.696;2022-11-11T00:53:10;9.70;99.90
7317;DHT22;3699;51.462;6.696;2022-11-11T00:55:37;10.00;99.90
7317;DHT22;3699;51.462;6.696;2022-11-11T01:00:31;10.30;99.90
7317;DHT22;3699;51.462;6.696;2022-11-11T01:02:58;10.50;99.90
7317;DHT22;3699;51.462;6.696;2022-11-11T01:05:26;10.00;99.90
7317;DHT22;3699;51.462;6.696;2022-11-11T01:07:53;10.10;99.90
7317;DHT22;3699;51.462;6.696;2022-11-11T01:10:21;9.80;99.90
7317;DHT22;3699;51.462;6.696;2022-11-11T01:13:12;10.00;99.90
7317;DHT22;3699;51.462;6.696;2022-11-11T01:15:40;10.10;99.90
7317;DHT22;3699;51.462;6.696;2022-11-11T01:20:36;9.30;99.90
7317;DHT22;3699;51.462;6.696;2022-11-11T01:23:03;9.90;99.90
7317;DHT22;3699;51.462;6.696;2022-11-11T01:25:32;10.00;99.90
7317;DHT22;3699;51.462;6.696;2022-11-11T01:28:00;9.70;99.90
7317;DHT22;3699;51.462;6.696;2022-11-11T01:30:27;9.80;99.90
7317;DHT22;3699;51.462;6.696;2022-11-11T01:32:53;9.70;99.90
7317;DHT22;3699;51.462;6.696;2022-11-11T01:35:20;9.90;99.90
7317;DHT22;3699;51.462;6.696;2022-11-11T01:37:48;10.00;99.90
7317;DHT22;3699;51.462;6.696;2022-11-11T01:40:15;10.10;99.90
7317;DHT22;3699;51.462;6.696;2022-11-11T01:42:46;9.80;99.90
7317;DHT22;3699;51.462;6.696;2022-11-11T01:45:44;9.80;99.90
7317;DHT22;3699;51.462;6.696;2022-11-11T01:48:13;9.80;99.90
7317;DHT22;3699;51.462;6.696;2022-11-11T01:51:01;9.60;99.90
7317;DHT22;3699;51.462;6.696;2022-11-11T01:53:30;9.80;99.90
7317;DHT22;3699;51.462;6.696;2022-11-11T01:55:58;9.90;99.90
7317;DHT22;3699;51.462;6.696;2022-11-11T01:58:26;9.90;99.90
7317;DHT22;3699;51.462;6.696;2022-11-11T02:00:54;9.90;99.90
7317;DHT22;3699;51.462;6.696;2022-11-11T02:03:23;10.00;99.90
7317;DHT22;3699;51.462;6.696;2022-11-11T02:05:51;9.60;99.90
7317;DHT22;3699;51.462;6.696;2022-11-11T02:08:22;9.90;99.90
7317;DHT22;3699;51.462;6.696;2022-11-11T02:13:27;9.60;99.90
7317;DHT22;3699;51.462;6.696;2022-11-11T02:16:11;9.60;99.90
7317;DHT22;3699;51.462;6.696;2022-11-11T02:18:38;9.90;99.90
7317;DHT22;3699;51.462;6.696;2022-11-11T02:21:06;9.70;99.90
7317;DHT22;3699;51.462;6.696;2022-11-11T02:23:36;10.40;99.90
7317;DHT22;3699;51.462;6.696;2022-11-11T02:26:06;9.60;99.90
7317;DHT22;3699;51.462;6.696;2022-11-11T02:28:35;9.80;99.90
7317;DHT22;3699;51.462;6.696;2022-11-11T02:31:03;9.50;99.90
7317;DHT22;3699;51.462;6.696;2022-11-11T02:33:30;9.60;99.90
7317;DHT22;3699;51.462;6.696;2022-11-11T02:35:58;9.50;99.90
7317;DHT22;3699;51.462;6.696;2022-11-11T02:38:26;9.90;99.90
7317;DHT22;3699;51.462;6.696;2022-11-11T02:40:54;9.50;99.90
7317;DHT22;3699;51.462;6.696;2022-11-11T02:43:40;9.40;99.90
7317;DHT22;3699;51.462;6.696;2022-11-11T02:46:07;9.60;99.90
7317;DHT22;3699;51.462;6.696;2022-11-11T02:48:34;9.40;99.90
7317;DHT22;3699;51.462;6.696;2022-11-11T02:51:01;9.40;99.90
7317;DHT22;3699;51.462;6.696;2022-11-11T02:53:27;9.60;99.90
7317;DHT22;3699;51.462;6.696;2022-11-11T02:55:54;9.40;99.90
7317;DHT22;3699;51.462;6.696;2022-11-11T02:58:21;9.60;99.90
7317;DHT22;3699;51.462;6.696;2022-11-11T03:00:49;9.50;99.90
7317;DHT22;3699;51.462;6.696;2022-11-11T03:03:15;9.40;99.90
7317;DHT22;3699;51.462;6.696;2022-11-11T03:05:42;9.30;99.90
7317;DHT22;3699;51.462;6.696;2022-11-11T03:08:09;9.10;99.90
7317;DHT22;3699;51.462;6.696;2022-11-11T03:10:36;9.30;99.90
7317;DHT22;3699;51.462;6.696;2022-11-11T03:13:02;9.10;99.90
7317;DHT22;3699;51.462;6.696;2022-11-11T03:15:29;9.10;99.90
7317;DHT22;3699;51.462;6.696;2022-11-11T03:17:57;9.30;99.90
7317;DHT22;3699;51.462;6.696;2022-11-11T03:20:23;9.10;99.90
7317;DHT22;3699;51.462;6.696;2022-11-11T03:23:10;9.30;99.90
7317;DHT22;3699;51.462;6.696;2022-11-11T03:25:38;9.40;99.90
7317;DHT22;3699;51.462;6.696;2022-11-11T03:28:05;8.50;99.90
7317;DHT22;3699;51.462;6.696;2022-11-11T03:33:01;9.30;99.90
7317;DHT22;3699;51.462;6.696;2022-11-11T03:35:29;9.10;99.90
7317;DHT22;3699;51.462;6.696;2022-11-11T03:37:56;9.20;99.90
7317;DHT22;3699;51.462;6.696;2022-11-11T03:43:07;9.30;99.90
7317;DHT22;3699;51.462;6.696;2022-11-11T03:45:34;8.80;99.90
7317;DHT22;3699;51.462;6.696;2022-11-11T03:48:02;9.80;99.90
7317;DHT22;3699;51.462;6.696;2022-11-11T03:50:30;9.20;99.90
7317;DHT22;3699;51.462;6.696;2022-11-11T03:52:56;8.50;99.90
7317;DHT22;3699;51.462;6.696;2022-11-11T03:55:23;9.30;99.90
7317;DHT22;3699;51.462;6.696;2022-11-11T03:57:50;9.20;99.90
7317;DHT22;3699;51.462;6.696;2022-11-11T04:00:18;9.10;99.90
7317;DHT22;3699;51.462;6.696;2022-11-11T04:05:32;9.00;99.90
7317;DHT22;3699;51.462;6.696;2022-11-11T04:08:17;9.00;99.90
7317;DHT22;3699;51.462;6.696;2022-11-11T04:11:06;9.00;99.90
7317;DHT22;3699;51.462;6.696;2022-11-11T04:13:34;8.80;99.90
7317;DHT22;3699;51.462;6.696;2022-11-11T04:16:19;9.30;99.90
7317;DHT22;3699;51.462;6.696;2022-11-11T04:18:46;9.20;99.90
7317;DHT22;3699;51.462;6.696;2022-11-11T04:21:31;9.10;99.90
7317;DHT22;3699;51.462;6.696;2022-11-11T04:24:11;8.50;99.90
7317;DHT22;3699;51.462;6.696;2022-11-11T04:27:08;9.10;99.90
7317;DHT22;3699;51.462;6.696;2022-11-11T04:29:35;9.20;99.90
7317;DHT22;3699;51.462;6.696;2022-11-11T04:32:03;9.20;99.90
7317;DHT22;3699;51.462;6.696;2022-11-11T04:34:49;9.20;99.90
7317;DHT22;3699;51.462;6.696;2022-11-11T04:37:17;9.00;99.90
7317;DHT22;3699;51.462;6.696;2022-11-11T04:39:45;8.60;99.90
7317;DHT22;3699;51.462;6.696;2022-11-11T04:42:30;9.00;99.90
7317;DHT22;3699;51.462;6.696;2022-11-11T04:44:58;9.00;99.90
7317;DHT22;3699;51.462;6.696;2022-11-11T04:47:54;8.80;99.90
7317;DHT22;3699;51.462;6.696;2022-11-11T04:50:21;9.00;99.90
7317;DHT22;3699;51.462;6.696;2022-11-11T04:52:49;8.90;99.90
7317;DHT22;3699;51.462;6.696;2022-11-11T04:55:16;9.00;99.90
7317;DHT22;3699;51.462;6.696;2022-11-11T04:58:00;8.90;99.90
7317;DHT22;3699;51.462;6.696;2022-11-11T05:00:27;8.70;99.90
7317;DHT22;3699;51.462;6.696;2022-11-11T05:02:54;8.50;99.90
7317;DHT22;3699;51.462;6.696;2022-11-11T05:08:25;8.80;99.90
7317;DHT22;3699;51.462;6.696;2022-11-11T05:11:08;9.10;99.90
7317;DHT22;3699;51.462;6.696;2022-11-11T05:13:35;9.00;99.90
7317;DHT22;3699;51.462;6.696;2022-11-11T05:16:22;8.20;99.90
7317;DHT22;3699;51.462;6.696;2022-11-11T05:19:09;8.70;99.90
7317;DHT22;3699;51.462;6.696;2022-11-11T05:21:56;8.60;99.90
7317;DHT22;3699;51.462;6.696;2022-11-11T05:24:27;9.00;99.90
7317;DHT22;3699;51.462;6.696;2022-11-11T05:27:11;8.90;99.90
7317;DHT22;3699;51.462;6.696;2022-11-11T05:29:38;8.70;99.90
7317;DHT22;3699;51.462;6.696;2022-11-11T05:32:07;9.00;99.90
7317;DHT22;3699;51.462;6.696;2022-11-11T05:34:33;8.70;99.90
7317;DHT22;3699;51.462;6.696;2022-11-11T05:37:00;9.00;99.90
7317;DHT22;3699;51.462;6.696;2022-11-11T05:39:28;8.80;99.90
7317;DHT22;3699;51.462;6.696;2022-11-11T05:41:55;8.70;99.90
7317;DHT22;3699;51.462;6.696;2022-11-11T05:44:22;8.70;99.90
7317;DHT22;3699;51.462;6.696;2022-11-11T05:46:48;9.00;99.90
7317;DHT22;3699;51.462;6.696;2022-11-11T05:49:15;8.80;99.90
7317;DHT22;3699;51.462;6.696;2022-11-11T05:51:42;8.70;99.90
7317;DHT22;3699;51.462;6.696;2022-11-11T05:54:09;8.90;99.90
7317;DHT22;3699;51.462;6.696;2022-11-11T05:56:37;8.80;99.90
7317;DHT22;3699;51.462;6.696;2022-11-11T05:59:06;8.80;99.90
7317;DHT22;3699;51.462;6.696;2022-11-11T06:01:33;9.10;99.90
7317;DHT22;3699;51.462;6.696;2022-11-11T06:04:00;8.80;99.90
7317;DHT22;3699;51.462;6.696;2022-11-11T06:06:27;8.80;99.90
7317;DHT22;3699;51.462;6.696;2022-11-11T06:08:54;8.80;99.90
7317;DHT22;3699;51.462;6.696;2022-11-11T06:13:49;9.00;99.90
7317;DHT22;3699;51.462;6.696;2022-11-11T06:16:16;9.00;99.90
7317;DHT22;3699;51.462;6.696;2022-11-11T06:18:43;9.50;99.90
7317;DHT22;3699;51.462;6.696;2022-11-11T06:23:37;9.00;99.90
7317;DHT22;3699;51.462;6.696;2022-11-11T06:26:04;8.60;99.90
7317;DHT22;3699;51.462;6.696;2022-11-11T06:28:42;8.90;99.90
7317;DHT22;3699;51.462;6.696;2022-11-11T06:31:12;8.80;99.90
7317;DHT22;3699;51.462;6.696;2022-11-11T06:33:39;9.00;99.90
7317;DHT22;3699;51.462;6.696;2022-11-11T06:36:08;8.70;99.90
7317;DHT22;3699;51.462;6.696;2022-11-11T06:38:34;8.90;99.90
7317;DHT22;3699;51.462;6.696;2022-11-11T06:41:01;8.70;99.90
7317;DHT22;3699;51.462;6.696;2022-11-11T06:43:28;8.90;99.90
7317;DHT22;3699;51.462;6.696;2022-11-11T06:45:55;8.80;99.90
7317;DHT22;3699;51.462;6.696;2022-11-11T06:50:51;9.00;99.90
7317;DHT22;3699;51.462;6.696;2022-11-11T06:53:18;9.00;99.90
7317;DHT22;3699;51.462;6.696;2022-11-11T06:58:14;9.60;99.90
7317;DHT22;3699;51.462;6.696;2022-11-11T07:00:43;9.40;99.90
7317;DHT22;3699;51.462;6.696;2022-11-11T07:03:11;8.90;99.90
7317;DHT22;3699;51.462;6.696;2022-11-11T07:05:39;9.10;99.90
7317;DHT22;3699;51.462;6.696;2022-11-11T07:08:09;9.10;99.90
7317;DHT22;3699;51.462;6.696;2022-11-11T07:10:37;9.40;99.90
7317;DHT22;3699;51.462;6.696;2022-11-11T07:13:05;8.80;99.90
7317;DHT22;3699;51.462;6.696;2022-11-11T07:15:32;9.00;99.90
7317;DHT22;3699;51.462;6.696;2022-11-11T07:20:27;9.70;99.90
7317;DHT22;3699;51.462;6.696;2022-11-11T07:22:55;9.30;99.90
7317;DHT22;3699;51.462;6.696;2022-11-11T07:25:22;9.50;99.90
7317;DHT22;3699;51.462;6.696;2022-11-11T07:27:48;9.60;99.90
7317;DHT22;3699;51.462;6.696;2022-11-11T07:30:16;9.60;99.90
7317;DHT22;3699;51.462;6.696;2022-11-11T07:32:44;9.40;99.90
7317;DHT22;3699;51.462;6.696;2022-11-11T07:37:39;10.00;99.90
7317;DHT22;3699;51.462;6.696;2022-11-11T07:40:10;9.50;99.90
7317;DHT22;3699;51.462;6.696;2022-11-11T07:45:05;9.70;99.90
7317;DHT22;3699;51.462;6.696;2022-11-11T07:47:32;9.70;99.90
7317;DHT22;3699;51.462;6.696;2022-11-11T07:52:27;10.50;99.90
7317;DHT22;3699;51.462;6.696;2022-11-11T07:54:53;10.10;99.90
7317;DHT22;3699;51.462;6.696;2022-11-11T07:57:21;10.00;99.90
7317;DHT22;3699;51.462;6.696;2022-11-11T07:59:48;9.90;99.90
7317;DHT22;3699;51.462;6.696;2022-11-11T08:02:16;10.20;99.90
7317;DHT22;3699;51.462;6.696;2022-11-11T08:04:42;10.00;99.90
7317;DHT22;3699;51.462;6.696;2022-11-11T08:07:10;10.10;99.90
7317;DHT22;3699;51.462;6.696;2022-11-11T08:09:37;10.40;99.90
7317;DHT22;3699;51.462;6.696;2022-11-11T08:12:04;10.20;99.90
7317;DHT22;3699;51.462;6.696;2022-11-11T08:14:49;9.60;99.90
7317;DHT22;3699;51.462;6.696;2022-11-11T08:17:16;10.20;99.90
7317;DHT22;3699;51.462;6.696;2022-11-11T08:19:43;10.40;99.90
7317;DHT22;3699;51.462;6.696;2022-11-11T08:24:37;10.80;99.90
7317;DHT22;3699;51.462;6.696;2022-11-11T08:27:04;10.70;99.90
7317;DHT22;3699;51.462;6.696;2022-11-11T08:31:59;11.00;99.90
7317;DHT22;3699;51.462;6.696;2022-11-11T08:34:25;11.30;99.90
7317;DHT22;3699;51.462;6.696;2022-11-11T08:39:19;10.90;99.90
7317;DHT22;3699;51.462;6.696;2022-11-11T08:46:40;11.40;99.90
7317;DHT22;3699;51.462;6.696;2022-11-11T08:49:08;11.30;99.90
7317;DHT22;3699;51.462;6.696;2022-11-11T08:54:03;11.50;99.90
7317;DHT22;3699;51.462;6.696;2022-11-11T08:56:29;11.40;99.90
7317;DHT22;3699;51.462;6.696;2022-11-11T08:58:56;11.40;99.90
7317;DHT22;3699;51.462;6.696;2022-11-11T09:01:23;11.80;99.90
7317;DHT22;3699;51.462;6.696;2022-11-11T09:08:45;11.90;99.90
7317;DHT22;3699;51.462;6.696;2022-11-11T09:11:12;11.90;99.90
7317;DHT22;3699;51.462;6.696;2022-11-11T09:16:07;12.00;99.90
7317;DHT22;3699;51.462;6.696;2022-11-11T09:18:35;11.90;99.90
7317;DHT22;3699;51.462;6.696;2022-11-11T09:21:01;12.30;99.90
7317;DHT22;3699;51.462;6.696;2022-11-11T09:23:30;12.70;99.90
7317;DHT22;3699;51.462;6.696;2022-11-11T09:26:14;12.20;99.90
7317;DHT22;3699;51.462;6.696;2022-11-11T09:28:41;12.60;99.90
7317;DHT22;3699;51.462;6.696;2022-11-11T09:31:07;11.80;99.90
7317;DHT22;3699;51.462;6.696;2022-11-11T09:33:34;12.80;99.90
7317;DHT22;3699;51.462;6.696;2022-11-11T09:36:01;12.80;99.90
7317;DHT22;3699;51.462;6.696;2022-11-11T09:38:27;12.80;99.90
7317;DHT22;3699;51.462;6.696;2022-11-11T09:41:14;12.90;99.90
7317;DHT22;3699;51.462;6.696;2022-11-11T09:43:47;13.00;99.90
7317;DHT22;3699;51.462;6.696;2022-11-11T09:46:22;13.00;99.90
7317;DHT22;3699;51.462;6.696;2022-11-11T09:49:09;13.20;99.90
7317;DHT22;3699;51.462;6.696;2022-11-11T09:51:45;13.30;99.90
7317;DHT22;3699;51.462;6.696;2022-11-11T09:54:16;13.10;99.90
7317;DHT22;3699;51.462;6.696;2022-11-11T09:56:46;13.20;99.90
7317;DHT22;3699;51.462;6.696;2022-11-11T09:59:16;13.20;99.90
7317;DHT22;3699;51.462;6.696;2022-11-11T10:01:47;13.50;99.90
7317;DHT22;3699;51.462;6.696;2022-11-11T10:04:22;13.50;99.90
7317;DHT22;3699;51.462;6.696;2022-11-11T10:06:56;13.50;99.90
7317;DHT22;3699;51.462;6.696;2022-11-11T10:09:30;13.40;99.90
7317;DHT22;3699;51.462;6.696;2022-11-11T10:12:07;12.70;99.90
7317;DHT22;3699;51.462;6.696;2022-11-11T10:14:37;13.40;99.90
7317;DHT22;3699;51.462;6.696;2022-11-11T10:17:16;13.30;99.90
7317;DHT22;3699;51.462;6.696;2022-11-11T10:19:58;13.80;99.90
7317;DHT22;3699;51.462;6.696;2022-11-11T10:22:32;13.60;99.90
7317;DHT22;3699;51.462;6.696;2022-11-11T10:25:18;13.70;99.90
7317;DHT22;3699;51.462;6.696;2022-11-11T10:27:50;13.70;99.90
7317;DHT22;3699;51.462;6.696;2022-11-11T10:32:53;13.80;99.90
7317;DHT22;3699;51.462;6.696;2022-11-11T10:35:24;13.90;99.90
7317;DHT22;3699;51.462;6.696;2022-11-11T10:37:58;14.00;99.90
7317;DHT22;3699;51.462;6.696;2022-11-11T10:40:31;14.30;99.90
7317;DHT22;3699;51.462;6.696;2022-11-11T10:43:01;14.30;99.90
7317;DHT22;3699;51.462;6.696;2022-11-11T10:45:32;14.20;99.90
7317;DHT22;3699;51.462;6.696;2022-11-11T10:48:06;14.30;99.90
7317;DHT22;3699;51.462;6.696;2022-11-11T10:50:37;14.30;99.90
7317;DHT22;3699;51.462;6.696;2022-11-11T10:53:11;14.40;99.90
7317;DHT22;3699;51.462;6.696;2022-11-11T10:55:43;14.70;99.90
7317;DHT22;3699;51.462;6.696;2022-11-11T10:58:16;15.00;99.90
7317;DHT22;3699;51.462;6.696;2022-11-11T11:00:45;14.90;99.90
7317;DHT22;3699;51.462;6.696;2022-11-11T11:03:18;14.90;99.90
7317;DHT22;3699;51.462;6.696;2022-11-11T11:05:50;14.90;99.90
7317;DHT22;3699;51.462;6.696;2022-11-11T11:08:21;14.70;99.90
7317;DHT22;3699;51.462;6.696;2022-11-11T11:10:51;14.80;99.90
7317;DHT22;3699;51.462;6.696;2022-11-11T11:13:26;15.40;99.90
7317;DHT22;3699;51.462;6.696;2022-11-11T11:18:24;14.80;99.90
7317;DHT22;3699;51.462;6.696;2022-11-11T11:20:55;14.60;99.90
7317;DHT22;3699;51.462;6.696;2022-11-11T11:23:34;14.90;99.90
7317;DHT22;3699;51.462;6.696;2022-11-11T11:26:01;14.70;99.90
7317;DHT22;3699;51.462;6.696;2022-11-11T11:28:31;14.90;99.90
7317;DHT22;3699;51.462;6.696;2022-11-11T11:31:00;14.80;99.90
7317;DHT22;3699;51.462;6.696;2022-11-11T11:33:50;14.60;99.90
7317;DHT22;3699;51.462;6.696;2022-11-11T11:36:17;14.70;99.90
7317;DHT22;3699;51.462;6.696;2022-11-11T11:38:46;14.70;99.90
7317;DHT22;3699;51.462;6.696;2022-11-11T11:41:15;14.80;99.90
7317;DHT22;3699;51.462;6.696;2022-11-11T11:43:42;14.90;99.90
7317;DHT22;3699;51.462;6.696;2022-11-11T11:46:19;14.50;99.90
7317;DHT22;3699;51.462;6.696;2022-11-11T11:49:09;14.70;99.90
7317;DHT22;3699;51.462;6.696;2022-11-11T11:51:44;14.60;99.90
7317;DHT22;3699;51.462;6.696;2022-11-11T11:54:24;14.70;99.90
7317;DHT22;3699;51.462;6.696;2022-11-11T11:56:57;14.70;99.90
7317;DHT22;3699;51.462;6.696;2022-11-11T11:59:30;14.60;99.90
7317;DHT22;3699;51.462;6.696;2022-11-11T12:02:02;14.90;99.90
7317;DHT22;3699;51.462;6.696;2022-11-11T12:04:51;14.70;99.90
7317;DHT22;3699;51.462;6.696;2022-11-11T12:07:32;15.00;99.90
7317;DHT22;3699;51.462;6.696;2022-11-11T12:10:07;14.50;99.90
7317;DHT22;3699;51.462;6.696;2022-11-11T12:12:42;15.00;99.90
7317;DHT22;3699;51.462;6.696;2022-11-11T12:15:20;16.00;99.90
7317;DHT22;3699;51.462;6.696;2022-11-11T12:17:56;14.70;99.90
7317;DHT22;3699;51.462;6.696;2022-11-11T12:20:35;14.10;99.90
7317;DHT22;3699;51.462;6.696;2022-11-11T12:23:18;14.30;99.90
7317;DHT22;3699;51.462;6.696;2022-11-11T12:25:55;14.60;99.90
7317;DHT22;3699;51.462;6.696;2022-11-11T12:28:36;14.50;99.90
7317;DHT22;3699;51.462;6.696;2022-11-11T12:31:26;14.80;99.90
7317;DHT22;3699;51.462;6.696;2022-11-11T12:34:07;15.10;99.90
7317;DHT22;3699;51.462;6.696;2022-11-11T12:36:43;14.60;99.90
7317;DHT22;3699;51.462;6.696;2022-11-11T12:39:25;14.60;99.90
7317;DHT22;3699;51.462;6.696;2022-11-11T12:42:05;14.80;99.90
7317;DHT22;3699;51.462;6.696;2022-11-11T12:44:42;14.40;99.90
7317;DHT22;3699;51.462;6.696;2022-11-11T12:47:25;14.50;99.90
7317;DHT22;3699;51.462;6.696;2022-11-11T12:52:37;14.50;99.90
7317;DHT22;3699;51.462;6.696;2022-11-11T12:55:20;14.40;99.90
7317;DHT22;3699;51.462;6.696;2022-11-11T12:58:02;14.90;99.90
7317;DHT22;3699;51.462;6.696;2022-11-11T13:00:32;14.90;99.90
7317;DHT22;3699;51.462;6.696;2022-11-11T13:03:10;14.50;99.90
7317;DHT22;3699;51.462;6.696;2022-11-11T13:05:43;14.50;99.90
7317;DHT22;3699;51.462;6.696;2022-11-11T13:11:11;14.50;99.90
7317;DHT22;3699;51.462;6.696;2022-11-11T13:13:50;14.20;99.90
7317;DHT22;3699;51.462;6.696;2022-11-11T13:16:22;14.30;99.90
7317;DHT22;3699;51.462;6.696;2022-11-11T13:18:55;14.40;99.90
7317;DHT22;3699;51.462;6.696;2022-11-11T13:21:25;14.30;99.90
7317;DHT22;3699;51.462;6.696;2022-11-11T13:23:57;14.50;99.90
7317;DHT22;3699;51.462;6.696;2022-11-11T13:26:27;14.20;99.90
7317;DHT22;3699;51.462;6.696;2022-11-11T13:29:06;14.30;99.90
7317;DHT22;3699;51.462;6.696;2022-11-11T13:31:36;14.30;99.90
7317;DHT22;3699;51.462;6.696;2022-11-11T13:37:27;14.20;99.90
7317;DHT22;3699;51.462;6.696;2022-11-11T13:40:01;14.20;99.90
7317;DHT22;3699;51.462;6.696;2022-11-11T13:42:35;14.00;99.90
7317;DHT22;3699;51.462;6.696;2022-11-11T13:45:05;14.10;99.90
7317;DHT22;3699;51.462;6.696;2022-11-11T13:47:35;14.30;99.90
7317;DHT22;3699;51.462;6.696;2022-11-11T13:50:05;14.20;99.90
7317;DHT22;3699;51.462;6.696;2022-11-11T13:52:36;13.40;99.90
7317;DHT22;3699;51.462;6.696;2022-11-11T13:55:08;14.10;99.90
7317;DHT22;3699;51.462;6.696;2022-11-11T13:57:46;14.10;99.90
7317;DHT22;3699;51.462;6.696;2022-11-11T14:00:25;14.70;99.90
7317;DHT22;3699;51.462;6.696;2022-11-11T14:11:29;14.30;99.90
7317;DHT22;3699;51.462;6.696;2022-11-11T14:13:57;14.20;99.90
7317;DHT22;3699;51.462;6.696;2022-11-11T14:19:28;14.30;99.90
7317;DHT22;3699;51.462;6.696;2022-11-11T14:21:57;14.20;99.90
7317;DHT22;3699;51.462;6.696;2022-11-11T14:24:30;14.20;99.90
7317;DHT22;3699;51.462;6.696;2022-11-11T14:27:02;14.20;99.90
7317;DHT22;3699;51.462;6.696;2022-11-11T14:29:31;14.40;99.90
7317;DHT22;3699;51.462;6.696;2022-11-11T14:32:17;14.50;99.90
7317;DHT22;3699;51.462;6.696;2022-11-11T14:34:56;14.20;99.90
7317;DHT22;3699;51.462;6.696;2022-11-11T14:37:36;14.10;99.90
7317;DHT22;3699;51.462;6.696;2022-11-11T14:40:09;14.20;99.90
7317;DHT22;3699;51.462;6.696;2022-11-11T14:42:45;14.00;99.90
7317;DHT22;3699;51.462;6.696;2022-11-11T14:48:52;14.20;99.90
7317;DHT22;3699;51.462;6.696;2022-11-11T14:51:48;14.00;99.90
7317;DHT22;3699;51.462;6.696;2022-11-11T14:54:35;13.80;99.90
7317;DHT22;3699;51.462;6.696;2022-11-11T14:57:06;13.90;99.90
7317;DHT22;3699;51.462;6.696;2022-11-11T14:59:35;13.90;99.90
7317;DHT22;3699;51.462;6.696;2022-11-11T15:02:06;13.80;99.90
7317;DHT22;3699;51.462;6.696;2022-11-11T15:04:39;13.70;99.90
7317;DHT22;3699;51.462;6.696;2022-11-11T15:07:21;13.80;99.90
7317;DHT22;3699;51.462;6.696;2022-11-11T15:10:14;13.60;99.90
7317;DHT22;3699;51.462;6.696;2022-11-11T15:13:02;14.10;99.90
7317;DHT22;3699;51.462;6.696;2022-11-11T15:15:40;13.30;99.90
7317;DHT22;3699;51.462;6.696;2022-11-11T15:18:17;13.20;99.90
7317;DHT22;3699;51.462;6.696;2022-11-11T15:20:59;13.20;99.90
7317;DHT22;3699;51.462;6.696;2022-11-11T15:23:32;13.10;99.90
7317;DHT22;3699;51.462;6.696;2022-11-11T15:26:08;13.20;99.90
7317;DHT22;3699;51.462;6.696;2022-11-11T15:28:57;13.30;99.90
7317;DHT22;3699;51.462;6.696;2022-11-11T15:31:34;13.00;99.90
7317;DHT22;3699;51.462;6.696;2022-11-11T15:34:21;12.80;99.90
7317;DHT22;3699;51.462;6.696;2022-11-11T15:39:22;12.70;99.90
7317;DHT22;3699;51.462;6.696;2022-11-11T15:41:50;12.60;99.90
7317;DHT22;3699;51.462;6.696;2022-11-11T15:44:19;12.70;99.90
7317;DHT22;3699;51.462;6.696;2022-11-11T15:46:49;12.10;99.90
7317;DHT22;3699;51.462;6.696;2022-11-11T15:49:37;12.30;99.90
7317;DHT22;3699;51.462;6.696;2022-11-11T15:52:07;12.30;99.90
7317;DHT22;3699;51.462;6.696;2022-11-11T15:54:37;12.10;99.90
7317;DHT22;3699;51.462;6.696;2022-11-11T15:57:20;12.20;99.90
7317;DHT22;3699;51.462;6.696;2022-11-11T15:59:47;11.20;99.90
7317;DHT22;3699;51.462;6.696;2022-11-11T16:02:18;11.70;99.90
7317;DHT22;3699;51.462;6.696;2022-11-11T16:04:47;11.70;99.90
7317;DHT22;3699;51.462;6.696;2022-11-11T16:07:20;11.70;99.90
7317;DHT22;3699;51.462;6.696;2022-11-11T16:09:47;11.40;99.90
7317;DHT22;3699;51.462;6.696;2022-11-11T16:12:18;11.20;99.90
7317;DHT22;3699;51.462;6.696;2022-11-11T16:14:47;11.30;99.90
7317;DHT22;3699;51.462;6.696;2022-11-11T16:17:17;11.40;99.90
7317;DHT22;3699;51.462;6.696;2022-11-11T16:19:45;11.60;99.90
7317;DHT22;3699;51.462;6.696;2022-11-11T16:22:48;11.00;99.90
7317;DHT22;3699;51.462;6.696;2022-11-11T16:25:20;11.00;99.90
7317;DHT22;3699;51.462;6.696;2022-11-11T16:28:03;11.00;99.90
7317;DHT22;3699;51.462;6.696;2022-11-11T16:30:32;10.70;99.90
7317;DHT22;3699;51.462;6.696;2022-11-11T16:33:01;11.00;99.90
7317;DHT22;3699;51.462;6.696;2022-11-11T16:35:30;10.80;99.90
7317;DHT22;3699;51.462;6.696;2022-11-11T16:37:58;10.50;99.90
7317;DHT22;3699;51.462;6.696;2022-11-11T16:40:27;10.40;99.90
7317;DHT22;3699;51.462;6.696;2022-11-11T16:43:16;10.70;99.90
7317;DHT22;3699;51.462;6.696;2022-11-11T16:45:48;10.20;99.90
7317;DHT22;3699;51.462;6.696;2022-11-11T16:48:49;10.10;99.90
7317;DHT22;3699;51.462;6.696;2022-11-11T16:51:20;10.30;99.90
7317;DHT22;3699;51.462;6.696;2022-11-11T16:53:53;9.90;99.90
7317;DHT22;3699;51.462;6.696;2022-11-11T16:56:24;9.90;99.90
7317;DHT22;3699;51.462;6.696;2022-11-11T16:58:59;9.70;99.90
7317;DHT22;3699;51.462;6.696;2022-11-11T17:01:26;9.90;99.90
7317;DHT22;3699;51.462;6.696;2022-11-11T17:03:56;9.50;99.90
7317;DHT22;3699;51.462;6.696;2022-11-11T17:06:52;9.90;99.90
7317;DHT22;3699;51.462;6.696;2022-11-11T17:09:41;9.50;99.90
7317;DHT22;3699;51.462;6.696;2022-11-11T17:14:37;9.60;99.90
7317;DHT22;3699;51.462;6.696;2022-11-11T17:17:06;9.80;99.90
7317;DHT22;3699;51.462;6.696;2022-11-11T17:19:35;9.30;99.90
7317;DHT22;3699;51.462;6.696;2022-11-11T17:22:07;9.20;99.90
7317;DHT22;3699;51.462;6.696;2022-11-11T17:24:35;9.40;99.90
7317;DHT22;3699;51.462;6.696;2022-11-11T17:27:02;9.60;99.90
7317;DHT22;3699;51.462;6.696;2022-11-11T17:31:56;9.30;99.90
7317;DHT22;3699;51.462;6.696;2022-11-11T17:34:22;9.30;99.90
7317;DHT22;3699;51.462;6.696;2022-11-11T17:36:51;9.20;99.90
7317;DHT22;3699;51.462;6.696;2022-11-11T17:39:17;9.10;99.90
7317;DHT22;3699;51.462;6.696;2022-11-11T17:41:44;9.30;99.90
7317;DHT22;3699;51.462;6.696;2022-11-11T17:49:06;9.20;99.90
7317;DHT22;3699;51.462;6.696;2022-11-11T17:51:33;8.90;99.90
7317;DHT22;3699;51.462;6.696;2022-11-11T17:54:01;8.70;99.90
7317;DHT22;3699;51.462;6.696;2022-11-11T18:01:22;8.60;99.90
7317;DHT22;3699;51.462;6.696;2022-11-11T18:03:48;8.60;99.90
7317;DHT22;3699;51.462;6.696;2022-11-11T18:06:21;8.70;99.90
7317;DHT22;3699;51.462;6.696;2022-11-11T18:08:48;8.60;99.90
7317;DHT22;3699;51.462;6.696;2022-11-11T18:11:16;8.70;99.90
7317;DHT22;3699;51.462;6.696;2022-11-11T18:16:13;8.50;99.90
7317;DHT22;3699;51.462;6.696;2022-11-11T18:21:08;8.80;99.90
7317;DHT22;3699;51.462;6.696;2022-11-11T18:23:36;8.60;99.90
7317;DHT22;3699;51.462;6.696;2022-11-11T18:26:04;8.50;99.90
7317;DHT22;3699;51.462;6.696;2022-11-11T18:28:34;8.80;99.90
7317;DHT22;3699;51.462;6.696;2022-11-11T18:33:30;8.90;99.90
7317;DHT22;3699;51.462;6.696;2022-11-11T18:36:05;8.90;99.90
7317;DHT22;3699;51.462;6.696;2022-11-11T18:38:32;9.00;99.90